Time;durP1;ratioP1;P1;durP2;ratioP2;P2;SDS_P1;SDS_P2;PMS_P1;PMS_P2;Temp;Humidity;BMP_temperature;BMP_pressure;BME280_temperature;BME280_humidity;BME280_pressure;Samples;Min_cycle;Max_cycle;Signal;HPM_P1;HPM_P2
2022/02/08 00:00:55;;;;;;;7.87;1.73;;;;;;;0.83;100.00;101527.94;5034008;28;20682;-73
2022/02/08 00:03:22;;;;;;;12.97;1.70;;;;;;;0.81;100.00;101527.03;5035320;28;20191;-74
2022/02/08 00:06:02;;;;;;;8.23;1.93;;;;;;;0.83;100.00;101537.34;5038247;28;20208;-74
2022/02/08 00:08:28;;;;;;;10.27;2.00;;;;;;;0.87;100.00;101527.19;5039401;28;20218;-73
2022/02/08 00:10:55;;;;;;;8.53;2.03;;;;;;;0.90;100.00;101537.56;5038696;28;20233;-74
2022/02/08 00:13:21;;;;;;;10.60;2.23;;;;;;;0.96;100.00;101543.69;5040213;28;20210;-74
2022/02/08 00:15:47;;;;;;;12.53;1.93;;;;;;;0.97;100.00;101548.88;5041211;28;20201;-74
2022/02/08 00:18:14;;;;;;;5.13;2.13;;;;;;;0.94;100.00;101559.06;5037934;28;20770;-74
2022/02/08 00:20:40;;;;;;;9.87;2.23;;;;;;;0.94;100.00;101559.91;5033123;28;20417;-74
2022/02/08 00:23:08;;;;;;;13.57;2.13;;;;;;;0.93;100.00;101560.75;5036296;28;20203;-74
2022/02/08 00:25:34;;;;;;;10.60;1.70;;;;;;;0.98;100.00;101571.13;5042259;28;20304;-74
2022/02/08 00:28:00;;;;;;;6.60;1.83;;;;;;;1.00;100.00;101572.03;5040964;28;20213;-73
2022/02/08 00:30:27;;;;;;;9.00;2.10;;;;;;;1.04;100.00;101573.00;5040084;28;20226;-73
2022/02/08 00:32:53;;;;;;;11.43;1.93;;;;;;;1.08;100.00;101577.41;5039725;28;21138;-74
2022/02/08 00:35:20;;;;;;;5.77;1.60;;;;;;;1.14;100.00;101590.41;5038674;28;20370;-73
2022/02/08 00:37:47;;;;;;;5.57;1.50;;;;;;;1.21;100.00;101589.75;5052146;28;20216;-74
2022/02/08 00:40:14;;;;;;;6.83;1.80;;;;;;;1.26;100.00;101589.91;5041503;28;20846;-74
2022/02/08 00:42:41;;;;;;;16.73;1.87;;;;;;;1.27;100.00;101586.50;5040164;28;20203;-74
2022/02/08 00:45:21;;;;;;;10.50;2.10;;;;;;;1.27;100.00;101589.09;5032467;28;20215;-73
2022/02/08 00:47:54;;;;;;;8.57;1.90;;;;;;;1.30;100.00;101600.31;5026098;28;20291;-74
2022/02/08 00:50:21;;;;;;;8.97;2.17;;;;;;;1.29;100.00;101590.00;5022361;28;20690;-74
2022/02/08 00:52:47;;;;;;;9.20;1.93;;;;;;;1.35;100.00;101594.41;5033807;28;20293;-73
2022/02/08 00:55:15;;;;;;;8.43;2.50;;;;;;;1.38;100.00;101605.66;5020852;28;20216;-73
2022/02/08 00:57:44;;;;;;;9.93;1.47;;;;;;;1.46;100.00;101603.28;5021346;28;20204;-73
2022/02/08 01:00:12;;;;;;;10.73;1.63;;;;;;;1.47;100.00;101605.03;5026204;28;20224;-73
2022/02/08 01:02:38;;;;;;;9.00;1.90;;;;;;;1.50;100.00;101607.69;5042446;28;20196;-73
2022/02/08 01:05:08;;;;;;;10.77;2.23;;;;;;;1.51;100.00;101610.31;5023848;28;20200;-73
2022/02/08 01:07:35;;;;;;;10.10;2.13;;;;;;;1.53;100.00;101612.91;5036880;28;20309;-73
2022/02/08 01:10:02;;;;;;;8.83;1.90;;;;;;;1.54;100.00;101617.22;5024471;28;20302;-74
2022/02/08 01:12:34;;;;;;;8.53;1.87;;;;;;;1.57;100.00;101614.72;5026027;28;20201;-74
2022/02/08 01:15:01;;;;;;;5.13;1.70;;;;;;;1.57;100.00;101612.16;5023202;28;20219;-73
2022/02/08 01:17:28;;;;;;;10.97;2.03;;;;;;;1.59;100.00;101607.94;5022090;28;20203;-73
2022/02/08 01:20:02;;;;;;;7.47;1.80;;;;;;;1.61;100.00;101615.69;5023963;28;20228;-73
2022/02/08 01:22:28;;;;;;;7.03;1.80;;;;;;;1.60;100.00;101613.94;5041434;28;20219;-73
2022/02/08 01:24:55;;;;;;;9.00;1.90;;;;;;;1.60;100.00;101613.94;5038228;28;20199;-74
2022/02/08 01:27:25;;;;;;;7.57;1.83;;;;;;;1.57;100.00;101612.16;5026629;28;20315;-73
2022/02/08 01:29:57;;;;;;;5.63;1.50;;;;;;;1.55;100.00;101602.66;5024333;28;20774;-73
2022/02/08 01:35:32;;;;;;;10.33;2.00;;;;;;;1.47;100.00;101605.88;4930173;29;20230;-73
2022/02/08 01:38:04;;;;;;;8.37;1.80;;;;;;;1.46;100.00;101610.97;5010145;28;20208;-73
2022/02/08 01:40:46;;;;;;;8.60;1.67;;;;;;;1.44;100.00;101603.25;5038583;28;20233;-73
2022/02/08 01:43:40;;;;;;;6.20;2.07;;;;;;;1.43;100.00;101606.66;5022849;28;20887;-73
2022/02/08 01:46:13;;;;;;;6.53;1.97;;;;;;;1.39;100.00;101601.38;5037149;28;20208;-73
2022/02/08 01:48:48;;;;;;;8.47;1.60;;;;;;;1.39;100.00;101601.38;5022691;28;20286;-73
2022/02/08 01:51:15;;;;;;;5.10;1.60;;;;;;;1.40;100.00;101605.69;5022116;28;20257;-73
2022/02/08 01:53:41;;;;;;;6.03;1.63;;;;;;;1.42;100.00;101614.31;5023631;28;20227;-73
2022/02/08 01:56:09;;;;;;;8.73;1.70;;;;;;;1.43;100.00;101605.78;5022696;28;20354;-73
2022/02/08 01:58:36;;;;;;;9.00;1.73;;;;;;;1.44;100.00;101610.06;5035882;28;20713;-73
2022/02/08 02:01:16;;;;;;;11.30;2.00;;;;;;;1.44;100.00;101590.41;5040132;28;20200;-73
2022/02/08 02:03:44;;;;;;;4.67;1.60;;;;;;;1.44;100.00;101592.09;5030848;28;20193;-73
2022/02/08 02:06:11;;;;;;;11.13;1.63;;;;;;;1.45;100.00;101596.41;5038443;28;20231;-73
2022/02/08 02:08:37;;;;;;;9.47;1.50;;;;;;;1.47;100.00;101589.59;5022478;28;20212;-73
2022/02/08 02:11:04;;;;;;;5.97;2.13;;;;;;;1.49;100.00;101591.38;5038763;28;20196;-74
2022/02/08 02:13:41;;;;;;;7.33;2.00;;;;;;;1.50;100.00;101587.97;5045174;28;20258;-74
2022/02/08 02:16:14;;;;;;;9.53;1.70;;;;;;;1.51;100.00;101586.28;5039225;28;20200;-73
2022/02/08 02:18:42;;;;;;;10.90;1.70;;;;;;;1.50;100.00;101593.13;5038695;28;20223;-73
2022/02/08 02:21:09;;;;;;;13.87;1.90;;;;;;;1.54;100.00;101593.22;5024764;28;20875;-73
2022/02/08 02:23:37;;;;;;;7.00;1.50;;;;;;;1.52;100.00;101590.59;5020194;28;20226;-73
2022/02/08 02:26:04;;;;;;;8.67;1.63;;;;;;;1.52;100.00;101594.03;5024139;28;20206;-73
2022/02/08 02:28:33;;;;;;;9.67;1.73;;;;;;;1.55;100.00;101593.25;5023273;28;20211;-73
2022/02/08 02:30:59;;;;;;;11.33;1.77;;;;;;;1.55;100.00;101595.84;5023615;28;20204;-73
2022/02/08 02:33:26;;;;;;;9.23;1.87;;;;;;;1.55;100.00;101595.84;5020528;28;20207;-73
2022/02/08 02:35:53;;;;;;;4.33;1.40;;;;;;;1.55;100.00;101593.25;5021299;28;20229;-74
2022/02/08 02:38:23;;;;;;;5.67;1.33;;;;;;;1.58;100.00;101595.88;5022238;28;20334;-73
2022/02/08 02:40:49;;;;;;;8.67;1.70;;;;;;;1.62;100.00;101602.88;5036685;28;20215;-73
2022/02/08 02:43:23;;;;;;;12.87;1.90;;;;;;;1.65;100.00;101602.97;5023152;28;20192;-73
2022/02/08 02:45:49;;;;;;;10.20;1.83;;;;;;;1.67;100.00;101605.53;5018730;28;20207;-73
2022/02/08 02:48:16;;;;;;;7.53;2.20;;;;;;;1.65;100.00;101600.38;5023125;28;20700;-73
2022/02/08 02:50:52;;;;;;;9.70;2.30;;;;;;;1.64;100.00;101592.63;5019254;28;20204;-73
2022/02/08 02:53:23;;;;;;;7.77;2.07;;;;;;;1.62;100.00;101597.72;5018717;28;20280;-72
2022/02/08 02:55:50;;;;;;;11.23;1.90;;;;;;;1.56;100.00;101592.41;5021204;28;20243;-73
2022/02/08 02:58:17;;;;;;;7.47;2.13;;;;;;;1.47;100.00;101600.75;5039819;28;20983;-73
2022/02/08 03:00:51;;;;;;;9.00;2.00;;;;;;;1.39;100.00;101599.69;5036481;28;20222;-73
2022/02/08 03:03:28;;;;;;;7.80;1.93;;;;;;;1.29;100.00;101603.69;5019702;28;20204;-72
2022/02/08 03:17:25;;;;;;;7.30;1.97;;;;;;;1.18;100.00;101605.13;5031428;28;20259;-72
2022/02/08 03:19:48;;;;;;;8.63;1.93;;;;;;;0.62;100.00;101597.50;5041240;28;20233;-73
2022/02/08 03:22:15;;;;;;;7.00;1.77;;;;;;;0.59;100.00;101596.53;5024588;28;20212;-73
2022/02/08 03:24:41;;;;;;;10.97;2.00;;;;;;;0.59;100.00;101606.81;5039204;28;20196;-73
2022/02/08 03:27:08;;;;;;;9.03;2.00;;;;;;;0.53;100.00;101597.22;5041511;28;20211;-73
2022/02/08 03:29:34;;;;;;;10.20;2.60;;;;;;;0.47;100.00;101604.72;5037707;28;20218;-73
2022/02/08 03:32:01;;;;;;;7.80;1.67;;;;;;;0.41;100.00;101605.41;5040279;28;20205;-73
2022/02/08 03:34:30;;;;;;;11.27;2.03;;;;;;;0.38;100.00;101592.47;5038439;28;20222;-73
2022/02/08 03:36:57;;;;;;;7.63;1.80;;;;;;;0.33;100.00;101592.31;5032006;28;20204;-73
2022/02/08 03:39:32;;;;;;;5.20;2.20;;;;;;;0.30;100.00;101588.78;5037884;28;20231;-73
2022/02/08 03:42:19;;;;;;;6.63;2.07;;;;;;;0.29;100.00;101575.09;5037504;28;20212;-74
2022/02/08 03:44:50;;;;;;;3.47;1.63;;;;;;;0.31;100.00;101580.28;5038649;28;20201;-73
2022/02/08 03:47:18;;;;;;;6.63;2.20;;;;;;;0.29;100.00;101579.38;5028435;28;20264;-74
2022/02/08 03:49:49;;;;;;;8.77;2.57;;;;;;;0.33;100.00;101576.06;5038996;28;20310;-73
2022/02/08 03:52:15;;;;;;;12.03;2.40;;;;;;;0.41;100.00;101576.31;5027127;28;20204;-73
2022/02/08 03:54:45;;;;;;;10.47;2.40;;;;;;;0.43;100.00;101566.97;5031727;28;20775;-73
2022/02/08 03:57:11;;;;;;;11.87;3.17;;;;;;;0.44;100.00;101567.03;5024814;28;20744;-73
2022/02/08 03:59:40;;;;;;;9.37;2.47;;;;;;;0.47;100.00;101568.78;5017145;28;20216;-74
2022/02/08 04:02:27;;;;;;;9.13;2.50;;;;;;;0.53;100.00;101567.28;5023617;28;20263;-74
2022/02/08 04:04:59;;;;;;;13.50;2.90;;;;;;;0.57;100.00;101571.69;5022292;28;20239;-73
2022/02/08 04:07:31;;;;;;;9.97;2.13;;;;;;;0.59;100.00;101574.28;5022555;28;20200;-73
2022/02/08 04:10:04;;;;;;;7.83;2.40;;;;;;;0.62;100.00;101570.97;5020985;28;20230;-73
2022/02/08 04:12:39;;;;;;;7.03;2.53;;;;;;;0.65;100.00;101573.59;5023829;28;20203;-73
2022/02/08 04:18:16;;;;;;;6.60;2.60;;;;;;;0.70;100.00;101570.38;5022306;28;20200;-73
2022/02/08 04:32:11;;;;;;;8.03;2.83;;;;;;;0.82;100.00;101569.84;5027524;28;20196;-73
2022/02/08 04:34:59;;;;;;;6.90;2.63;;;;;;;0.85;100.00;101581.91;5027665;28;20224;-74
2022/02/08 04:45:58;;;;;;;12.40;3.00;;;;;;;0.95;100.00;101581.34;5017293;28;20219;-73
2022/02/08 04:48:37;;;;;;;12.27;3.10;;;;;;;0.97;100.00;101581.38;5022722;28;20212;-73
2022/02/08 04:51:12;;;;;;;9.63;3.13;;;;;;;0.99;100.00;101577.16;5021469;28;20195;-73
2022/02/08 04:53:46;;;;;;;11.03;3.70;;;;;;;1.00;100.00;101576.31;5022701;28;20208;-72
2022/02/08 04:56:21;;;;;;;8.60;3.13;;;;;;;1.02;100.00;101566.97;5023771;28;20749;-72
2022/02/08 04:58:53;;;;;;;6.77;3.27;;;;;;;1.05;100.00;101562.78;5022457;28;20273;-72
2022/02/08 05:01:25;;;;;;;9.83;3.80;;;;;;;1.06;100.00;101567.09;5024291;28;20210;-73
2022/02/08 05:42:21;;;;;;;14.03;4.70;;;;;;;1.22;100.00;101517.00;5125426;27;20196;-75
2022/02/08 05:44:55;;;;;;;9.43;4.67;;;;;;;1.25;100.00;101524.81;5119782;27;20189;-74
2022/02/08 05:47:21;;;;;;;11.23;4.43;;;;;;;1.29;100.00;101518.03;5121219;27;20196;-74
2022/02/08 05:50:04;;;;;;;9.80;4.43;;;;;;;1.30;100.00;101520.66;5111878;27;20709;-74
2022/02/08 05:52:48;;;;;;;12.33;4.67;;;;;;;1.31;100.00;101513.81;5110350;27;20319;-74
2022/02/08 05:55:14;;;;;;;9.30;4.60;;;;;;;1.35;100.00;101514.75;5109958;27;20200;-75
2022/02/08 05:57:41;;;;;;;12.37;4.40;;;;;;;1.36;100.00;101513.94;5113507;27;20204;-73
2022/02/08 06:00:09;;;;;;;8.83;4.10;;;;;;;1.37;100.00;101513.94;5113340;27;20220;-75
2022/02/08 06:02:46;;;;;;;9.20;5.17;;;;;;;1.39;100.00;101511.41;5098207;27;20665;-73
2022/02/08 06:05:20;;;;;;;10.27;4.63;;;;;;;1.44;100.00;101515.88;5096243;27;20287;-74
2022/02/08 06:07:48;;;;;;;10.43;4.50;;;;;;;1.47;100.00;101517.63;5109724;27;20199;-74
2022/02/08 06:10:15;;;;;;;10.77;4.60;;;;;;;1.48;100.00;101516.81;5107919;27;21273;-74
2022/02/08 06:12:45;;;;;;;15.87;4.93;;;;;;;1.48;100.00;101506.53;5108964;27;20197;-74
2022/02/08 06:15:20;;;;;;;10.03;4.73;;;;;;;1.48;100.00;101507.41;5097941;27;20203;-74
2022/02/08 06:17:48;;;;;;;13.43;5.10;;;;;;;1.51;100.00;101511.72;5097037;27;20689;-75
2022/02/08 06:20:15;;;;;;;10.17;4.40;;;;;;;1.52;100.00;101510.91;5111655;27;20223;-74
2022/02/08 06:22:44;;;;;;;9.60;4.70;;;;;;;1.55;100.00;101516.16;5115109;27;20208;-74
2022/02/08 06:25:15;;;;;;;13.17;4.23;;;;;;;1.58;100.00;101512.75;5106511;27;20211;-73
2022/02/08 06:27:42;;;;;;;10.30;4.53;;;;;;;1.58;100.00;101513.63;5116970;27;20194;-75
2022/02/08 06:30:11;;;;;;;9.00;3.97;;;;;;;1.60;100.00;101514.56;5120269;27;20216;-73
2022/02/08 06:32:38;;;;;;;10.73;4.33;;;;;;;1.63;100.00;101508.59;5115987;27;20202;-74
2022/02/08 06:35:11;;;;;;;8.90;4.10;;;;;;;1.62;100.00;101499.16;5103304;27;20332;-74
2022/02/08 06:41:33;;;;;;;10.33;4.07;;;;;;;1.58;100.00;101494.78;5115919;27;20678;-74
2022/02/08 06:44:00;;;;;;;10.87;4.20;;;;;;;1.61;100.00;101497.44;5091712;27;20188;-74
2022/02/08 06:46:28;;;;;;;7.03;3.93;;;;;;;1.63;100.00;101494.03;5104227;28;20735;-74
2022/02/08 06:48:54;;;;;;;7.80;4.03;;;;;;;1.63;100.00;101485.47;5106775;27;20252;-74
2022/02/08 06:51:21;;;;;;;8.50;4.23;;;;;;;1.63;100.00;101485.47;5104333;27;20308;-74
2022/02/08 06:53:47;;;;;;;13.93;4.97;;;;;;;1.62;100.00;101489.75;5103860;27;20205;-73
2022/02/08 06:56:14;;;;;;;12.47;4.13;;;;;;;1.64;100.00;101485.50;5087487;27;20204;-74
2022/02/08 06:58:50;;;;;;;10.70;4.43;;;;;;;1.66;100.00;101481.28;5104530;27;20224;-74
2022/02/08 07:01:19;;;;;;;8.10;4.17;;;;;;;1.69;100.00;101490.78;5102602;28;20304;-74
2022/02/08 07:03:48;;;;;;;10.13;3.97;;;;;;;1.72;100.00;101482.25;5100958;27;20250;-74
2022/02/08 07:06:15;;;;;;;6.47;3.90;;;;;;;1.73;100.00;101487.44;5104412;27;20220;-74
2022/02/08 07:08:41;;;;;;;11.80;4.00;;;;;;;1.75;100.00;101487.47;5104832;27;20547;-74
2022/02/08 07:11:14;;;;;;;9.83;4.10;;;;;;;1.75;100.00;101493.47;5099249;27;20220;-74
2022/02/08 07:13:44;;;;;;;8.23;3.53;;;;;;;1.77;100.00;101489.25;5099022;28;20275;-74
2022/02/08 07:16:11;;;;;;;10.10;3.70;;;;;;;1.78;100.00;101496.13;5098964;28;20658;-74
2022/02/08 07:18:37;;;;;;;10.97;3.67;;;;;;;1.79;100.00;101489.28;5082139;27;20214;-74
2022/02/08 07:21:03;;;;;;;12.23;3.93;;;;;;;1.79;100.00;101490.13;5085211;28;20197;-75
2022/02/08 07:23:30;;;;;;;13.57;4.00;;;;;;;1.76;100.00;101486.63;5099606;27;20209;-74
2022/02/08 07:25:56;;;;;;;11.60;4.03;;;;;;;1.78;100.00;101490.13;5102385;27;20723;-73
2022/02/08 07:28:23;;;;;;;9.33;3.80;;;;;;;1.79;100.00;101482.44;5104539;27;20205;-73
2022/02/08 07:30:56;;;;;;;10.60;3.80;;;;;;;1.82;100.00;101490.22;5112062;27;20239;-74
2022/02/08 07:33:23;;;;;;;9.30;3.57;;;;;;;1.84;100.00;101479.97;5108638;27;20197;-74
2022/02/08 07:35:54;;;;;;;10.17;3.57;;;;;;;1.87;100.00;101482.63;5105012;27;20198;-74
2022/02/08 07:38:24;;;;;;;15.47;4.30;;;;;;;1.91;100.00;101483.56;5103695;28;20684;-74
2022/02/08 07:43:34;;;;;;;10.90;4.00;;;;;;;1.93;100.00;101485.31;5097420;27;20213;-74
2022/02/08 07:46:09;;;;;;;11.60;4.43;;;;;;;1.92;100.00;101486.19;5090778;28;20218;-74
2022/02/08 07:48:35;;;;;;;11.67;4.13;;;;;;;1.93;100.00;101479.31;5089137;28;20221;-74
2022/02/08 07:51:02;;;;;;;9.50;4.17;;;;;;;1.95;100.00;101488.78;5106756;27;20702;-74
2022/02/08 07:53:30;;;;;;;9.87;4.00;;;;;;;1.98;100.00;101482.88;5107898;27;20205;-74
2022/02/08 07:55:56;;;;;;;11.17;3.97;;;;;;;1.99;100.00;101482.03;5104469;28;20197;-74
2022/02/08 07:58:24;;;;;;;11.40;3.87;;;;;;;2.00;100.00;101479.47;5100573;27;20205;-74
2022/02/08 08:00:51;;;;;;;9.00;3.70;;;;;;;2.01;100.00;101477.81;5105939;27;20276;-74
2022/02/08 08:03:19;;;;;;;9.90;4.30;;;;;;;2.02;100.00;101477.84;5102932;28;20230;-74
2022/02/08 08:05:45;;;;;;;9.20;4.23;;;;;;;2.06;100.00;101483.91;5107032;27;20206;-75
2022/02/08 08:08:14;;;;;;;10.57;4.63;;;;;;;2.04;100.00;101475.28;5098270;27;20228;-75
2022/02/08 08:10:45;;;;;;;9.90;3.53;;;;;;;2.06;100.00;101478.78;5106897;27;20202;-74
2022/02/08 08:13:12;;;;;;;12.87;3.97;;;;;;;2.07;100.00;101467.63;5105130;28;21370;-75
2022/02/08 08:15:44;;;;;;;8.37;5.10;;;;;;;2.11;100.00;101461.75;5107023;27;20278;-74
2022/02/08 08:18:26;;;;;;;12.03;5.70;;;;;;;2.10;100.00;101456.56;5096517;27;20290;-74
2022/02/08 08:20:54;;;;;;;8.63;4.73;;;;;;;2.09;100.00;101455.66;5106418;27;20199;-74
2022/02/08 08:23:20;;;;;;;12.17;4.30;;;;;;;2.10;100.00;101447.13;5088487;28;20266;-74
2022/02/08 08:25:49;;;;;;;11.17;4.37;;;;;;;2.12;100.00;101450.59;5088866;28;20193;-73
2022/02/08 08:28:15;;;;;;;11.60;4.57;;;;;;;2.17;100.00;101445.56;5098563;27;20292;-74
2022/02/08 08:30:42;;;;;;;13.43;4.10;;;;;;;2.18;100.00;101444.69;5089517;27;20212;-74
2022/02/08 08:33:08;;;;;;;11.13;4.50;;;;;;;2.22;100.00;101449.97;5101789;27;20224;-74
2022/02/08 08:35:36;;;;;;;12.00;4.77;;;;;;;2.24;100.00;101432.84;5103822;28;20189;-74
2022/02/08 08:38:07;;;;;;;8.77;3.60;;;;;;;2.29;100.00;101414.94;5090520;27;20258;-74
2022/02/08 08:40:44;;;;;;;12.40;4.37;;;;;;;2.34;100.00;101428.78;5088316;28;20292;-73
2022/02/08 08:49:09;;;;;;;10.23;4.10;;;;;;;2.56;100.00;101421.47;5033041;28;20222;-74
2022/02/08 08:51:41;;;;;;;10.47;4.07;;;;;;;2.68;100.00;101423.41;5093710;27;20340;-74
2022/02/08 08:54:09;;;;;;;9.43;3.80;;;;;;;2.76;100.00;101424.41;5099541;28;20201;-74
2022/02/08 08:56:36;;;;;;;9.10;3.80;;;;;;;2.84;100.00;101420.28;5109444;27;20204;-74
2022/02/08 08:59:04;;;;;;;9.23;4.17;;;;;;;2.84;100.00;101420.28;5100839;28;20217;-74
2022/02/08 09:01:30;;;;;;;14.70;4.47;;;;;;;2.89;100.00;101415.22;5107432;27;20197;-74
2022/02/08 09:03:57;;;;;;;10.97;4.10;;;;;;;2.91;100.00;101422.13;5100598;27;20224;-73
2022/02/08 09:06:23;;;;;;;7.80;3.20;;;;;;;2.93;100.00;101420.44;5101608;28;20216;-74
2022/02/08 09:08:52;;;;;;;6.53;2.87;;;;;;;2.98;100.00;101417.97;5100855;27;20312;-74
2022/02/08 09:11:36;;;;;;;9.53;3.33;;;;;;;2.96;100.00;101415.34;5104767;28;20664;-74
2022/02/08 09:14:09;;;;;;;10.73;3.80;;;;;;;2.99;100.00;101409.38;5102019;28;20847;-75
2022/02/08 09:16:41;;;;;;;8.13;3.03;;;;;;;3.05;100.00;101404.34;5104909;27;20265;-75
2022/02/08 09:19:37;;;;;;;5.17;2.23;;;;;;;3.07;100.00;101404.38;5099175;28;20229;-74
2022/02/08 09:22:35;;;;;;;6.30;2.70;;;;;;;3.12;100.00;101411.31;5104561;28;20699;-75
2022/02/08 09:25:16;;;;;;;4.40;2.20;;;;;;;3.08;100.00;101413.81;5103999;28;20204;-74
2022/02/08 09:27:57;;;;;;;9.33;2.47;;;;;;;3.10;100.00;101419.88;5104192;27;20247;-74
2022/02/08 09:30:33;;;;;;;5.57;2.57;;;;;;;3.05;100.00;101412.06;5103552;28;20222;-74
2022/02/08 09:33:00;;;;;;;3.80;2.10;;;;;;;3.03;100.00;101411.19;5102763;28;20218;-73
2022/02/08 09:35:26;;;;;;;6.57;2.40;;;;;;;3.01;100.00;101416.31;5107806;28;20197;-74
2022/02/08 09:37:52;;;;;;;6.03;2.10;;;;;;;3.03;100.00;101435.22;5099965;28;20197;-75
2022/02/08 09:40:21;;;;;;;8.23;4.07;;;;;;;2.99;100.00;101429.97;5104379;28;20220;-74
2022/02/08 09:42:51;;;;;;;9.00;2.63;;;;;;;2.95;100.00;101420.47;5101555;28;20203;-75
2022/02/08 09:45:19;;;;;;;6.07;2.60;;;;;;;2.89;100.00;101418.66;5102740;28;20197;-74
2022/02/08 09:47:52;;;;;;;4.57;2.27;;;;;;;2.88;100.00;101440.09;5103954;28;20205;-75
2022/02/08 09:50:21;;;;;;;5.37;2.73;;;;;;;2.90;100.00;101432.41;5099001;28;20270;-74
2022/02/08 09:52:51;;;;;;;5.40;2.23;;;;;;;2.91;100.00;101421.25;5096938;28;20305;-74
2022/02/08 09:55:21;;;;;;;3.23;2.13;;;;;;;2.93;100.00;101446.19;5097308;28;20193;-75
2022/02/08 09:57:50;;;;;;;5.00;2.30;;;;;;;2.95;100.00;101421.31;5096895;28;20201;-74
2022/02/08 10:00:18;;;;;;;8.40;2.37;;;;;;;2.94;100.00;101419.59;5095643;28;20218;-74
2022/02/08 10:02:45;;;;;;;4.50;2.00;;;;;;;2.95;100.00;101416.19;5098318;28;20957;-74
2022/02/08 10:05:11;;;;;;;10.57;2.90;;;;;;;2.96;100.00;101424.78;5105653;28;20693;-74
2022/02/08 10:07:38;;;;;;;7.33;4.50;;;;;;;2.97;100.00;101434.25;5102156;28;20318;-75
2022/02/08 10:10:07;;;;;;;6.63;2.67;;;;;;;2.96;100.00;101423.06;5103421;28;20220;-75
2022/02/08 10:12:58;;;;;;;4.63;2.80;;;;;;;2.98;100.00;101420.53;5103523;28;20217;-74
2022/02/08 10:24:01;;;;;;;7.10;2.17;;;;;;;3.12;100.00;101401.03;5101115;27;20240;-75
2022/02/08 10:26:38;;;;;;;5.27;2.50;;;;;;;3.17;100.00;101396.81;5090353;28;20208;-74
2022/02/08 10:29:12;;;;;;;5.00;2.50;;;;;;;3.25;100.00;101402.09;5105425;28;20721;-75
2022/02/08 10:32:20;;;;;;;5.93;2.50;;;;;;;3.32;100.00;101409.06;5108883;27;20215;-75
2022/02/08 10:37:46;;;;;;;5.00;2.57;;;;;;;3.45;100.00;101393.78;5104550;27;20753;-75
2022/02/08 10:40:16;;;;;;;4.87;2.30;;;;;;;3.46;100.00;101386.09;5105249;28;20235;-74
2022/02/08 10:42:51;;;;;;;4.57;2.47;;;;;;;3.51;100.00;101381.00;5104046;28;20220;-74
2022/02/08 10:45:21;;;;;;;5.93;2.43;;;;;;;3.57;100.00;101384.56;5104813;28;20967;-74
2022/02/08 10:47:54;;;;;;;8.53;2.60;;;;;;;3.63;100.00;101372.59;5101844;28;20215;-75
2022/02/08 10:50:20;;;;;;;5.50;2.50;;;;;;;3.77;100.00;101383.97;5103274;27;20667;-74
2022/02/08 10:52:48;;;;;;;6.03;2.60;;;;;;;3.83;100.00;101373.72;5106437;27;20222;-74
2022/02/08 10:55:25;;;;;;;3.27;2.00;;;;;;;3.91;100.00;101379.00;5106868;27;20281;-74
2022/02/08 10:58:07;;;;;;;6.23;2.60;;;;;;;4.06;100.00;101368.84;5099630;27;20200;-75
2022/02/08 11:00:38;;;;;;;4.83;2.47;;;;;;;4.25;100.00;101372.53;5106390;27;20614;-74
2022/02/08 11:03:11;;;;;;;5.33;2.40;;;;;;;4.36;100.00;101350.31;5099581;27;21025;-75
2022/02/08 11:05:47;;;;;;;6.10;2.30;;;;;;;4.45;100.00;101353.81;5111402;27;20204;-75
2022/02/08 11:11:13;;;;;;;4.63;2.10;;;;;;;4.39;100.00;101353.75;5107388;27;20224;-75
2022/02/08 11:13:59;;;;;;;6.37;2.83;;;;;;;4.43;100.00;101364.13;5105707;27;20752;-75
2022/02/08 11:16:30;;;;;;;6.60;2.30;;;;;;;4.45;100.00;101374.47;5108357;27;20197;-75
2022/02/08 11:19:22;;;;;;;7.23;2.90;;;;;;;4.50;100.00;101363.38;5106159;27;20204;-73
2022/02/08 11:22:03;;;;;;;6.77;2.80;;;;;;;4.54;100.00;101369.44;5103297;28;20595;-75
2022/02/08 11:24:39;;;;;;;5.47;2.30;;;;;;;4.58;100.00;101376.34;5109046;27;20201;-75
2022/02/08 11:27:11;;;;;;;7.70;3.90;;;;;;;4.59;100.00;101359.13;5103008;27;20206;-75
2022/02/08 11:29:50;;;;;;;5.90;2.93;;;;;;;4.61;100.00;101360.00;5104566;27;20593;-75
2022/02/08 11:32:24;;;;;;;4.13;2.33;;;;;;;4.66;100.00;101346.31;5105742;27;20217;-74
2022/02/08 11:46:04;;;;;;;7.17;2.30;;;;;;;4.78;100.00;101336.94;5035391;28;20246;-74
2022/02/08 11:52:40;;;;;;;2.83;1.80;;;;;;;4.77;100.00;101337.75;5105496;27;20273;-74
2022/02/08 11:58:35;;;;;;;3.77;2.30;;;;;;;4.84;100.00;101335.28;5075453;28;20213;-75
2022/02/08 12:01:07;;;;;;;4.37;2.20;;;;;;;4.91;100.00;101325.88;5102164;27;20194;-74
2022/02/08 12:07:04;;;;;;;3.70;1.77;;;;;;;4.99;100.00;101337.09;5100596;27;20243;-74
2022/02/08 12:09:39;;;;;;;5.03;1.93;;;;;;;5.06;100.00;101325.09;5101494;27;20241;-74
2022/02/08 12:12:39;;;;;;;3.63;1.67;;;;;;;5.10;100.00;101311.34;5088897;28;20220;-74
2022/02/08 12:49:53;;;;;;;3.37;1.83;;;;;;;5.41;100.00;101324.50;5093324;28;20226;-81
2022/02/08 12:58:01;;;;;;;3.40;2.67;;;;;;;5.40;100.00;101308.13;5021416;28;20299;-79
2022/02/08 13:00:38;;;;;;;4.47;2.30;;;;;;;5.43;100.00;101302.94;5088651;28;20201;-79
2022/02/08 13:06:16;;;;;;;6.60;2.47;;;;;;;5.47;100.00;101288.31;5080758;28;20512;-80
2022/02/08 14:01:48;;;;;;;2.40;1.90;;;;;;;6.10;100.00;101279.97;5078854;28;20201;-81
2022/02/08 14:07:01;;;;;;;3.20;2.17;;;;;;;6.21;100.00;101267.94;5044544;28;20236;-81
2022/02/08 14:09:39;;;;;;;4.67;2.30;;;;;;;6.23;100.00;101273.97;5059988;28;20233;-80
2022/02/08 14:12:43;;;;;;;4.13;2.40;;;;;;;6.20;100.00;101267.06;5080294;28;20298;-81
2022/02/08 14:18:02;;;;;;;3.27;1.77;;;;;;;6.27;100.00;101280.03;5057590;28;20267;-80
2022/02/08 14:23:50;;;;;;;5.53;2.50;;;;;;;6.28;100.00;101280.03;4979588;28;20208;-80
2022/02/08 14:31:59;;;;;;;2.67;2.20;;;;;;;6.46;100.00;101286.97;5077630;28;20222;-80
2022/02/08 14:35:02;;;;;;;4.97;3.00;;;;;;;6.56;100.00;101287.81;5071322;28;20288;-79
2022/02/08 15:08:00;;;;;;;3.37;2.10;;;;;;;6.60;100.00;101305.13;5071888;28;20575;-81
2022/02/08 15:10:35;;;;;;;4.40;2.20;;;;;;;6.63;100.00;101310.28;5067267;28;20231;-80
2022/02/08 15:13:02;;;;;;;2.53;2.10;;;;;;;6.62;100.00;101311.16;5040423;28;20195;-80
2022/02/08 15:15:34;;;;;;;4.77;2.17;;;;;;;6.62;100.00;101308.56;5038918;28;20212;-80
2022/02/08 15:18:02;;;;;;;5.37;2.33;;;;;;;6.66;100.00;101315.47;5038206;28;20701;-80
2022/02/08 15:20:28;;;;;;;4.60;2.30;;;;;;;6.64;100.00;101312.03;5039942;28;20579;-80
2022/02/08 15:22:57;;;;;;;3.47;2.53;;;;;;;6.70;100.00;101313.75;5038719;28;20213;-80
2022/02/08 15:25:25;;;;;;;2.70;2.00;;;;;;;6.68;100.00;101315.50;5036558;28;20511;-83
2022/02/08 15:27:51;;;;;;;2.87;2.37;;;;;;;6.72;100.00;101319.81;5040674;28;20674;-80
2022/02/08 15:30:18;;;;;;;4.13;2.40;;;;;;;6.75;100.00;101314.63;5038708;28;20569;-81
2022/02/08 15:32:44;;;;;;;5.07;2.10;;;;;;;6.78;100.00;101320.69;5041158;28;20576;-80
2022/02/08 15:35:12;;;;;;;4.70;2.40;;;;;;;6.77;100.00;101318.09;5039283;28;20203;-80
2022/02/08 15:37:39;;;;;;;4.50;2.40;;;;;;;6.76;100.00;101318.97;5038554;28;20214;-82
2022/02/08 15:40:10;;;;;;;3.67;2.40;;;;;;;6.76;100.00;101330.19;5035041;28;20571;-81
2022/02/08 15:42:39;;;;;;;3.10;2.03;;;;;;;6.75;100.00;101330.19;5040065;28;20196;-80
2022/02/08 15:45:14;;;;;;;2.37;2.17;;;;;;;6.76;100.00;101330.19;5033210;28;20274;-80
2022/02/08 15:47:40;;;;;;;5.13;2.17;;;;;;;6.69;100.00;101319.81;5032909;28;20616;-80
2022/02/08 15:50:12;;;;;;;2.67;2.20;;;;;;;6.61;100.00;101312.91;5036070;28;20218;-81
2022/02/08 15:53:04;;;;;;;2.53;2.10;;;;;;;6.59;100.00;101330.16;5036236;28;20319;-80
2022/02/08 15:55:38;;;;;;;4.13;2.30;;;;;;;6.57;100.00;101339.66;5039501;28;20207;-80
2022/02/08 15:58:18;;;;;;;3.83;2.10;;;;;;;6.59;100.00;101335.34;5035817;28;20230;-79
2022/02/08 16:01:07;;;;;;;8.43;2.33;;;;;;;6.58;100.00;101337.94;5033343;28;20210;-80
2022/02/08 16:09:06;;;;;;;5.53;2.50;;;;;;;6.49;100.00;101331.03;5034762;28;20238;-81
2022/02/08 16:11:50;;;;;;;2.57;2.10;;;;;;;6.49;100.00;101338.78;5032847;28;20221;-80